createdAt,value
2022-07-26T00:01:21.741Z,97.47
2022-07-26T00:03:51.332Z,97.86
2022-07-26T00:06:19.455Z,98.08
2022-07-26T00:08:48.414Z,99.16
2022-07-26T00:11:16.894Z,100.00
2022-07-26T00:13:45.096Z,100.00
2022-07-26T00:16:13.377Z,100.00
2022-07-26T00:18:43.164Z,100.00
2022-07-26T00:21:11.697Z,100.00
2022-07-26T00:23:40.267Z,100.00
2022-07-26T00:26:08.443Z,100.00
2022-07-26T00:28:36.655Z,100.00
2022-07-26T00:31:05.191Z,100.00
2022-07-26T00:33:33.471Z,100.00
2022-07-26T00:36:03.115Z,100.00
2022-07-26T00:38:31.179Z,100.00
2022-07-26T00:40:59.839Z,100.00
2022-07-26T00:43:27.898Z,100.00
2022-07-26T00:45:56.049Z,100.00
2022-07-26T00:48:24.302Z,100.00
2022-07-26T00:50:54.508Z,100.00
2022-07-26T00:53:25.037Z,100.00
2022-07-26T00:55:54.123Z,100.00
2022-07-26T00:58:22.240Z,100.00
2022-07-26T01:00:50.447Z,100.00
2022-07-26T01:03:18.702Z,100.00
2022-07-26T01:05:48.427Z,100.00
2022-07-26T01:08:16.635Z,100.00
2022-07-26T01:10:46.108Z,100.00
2022-07-26T01:13:16.288Z,100.00
2022-07-26T01:15:44.397Z,100.00
2022-07-26T01:18:12.542Z,100.00
2022-07-26T01:20:40.941Z,100.00
2022-07-26T01:23:10.410Z,100.00
2022-07-26T01:25:43.431Z,100.00
2022-07-26T01:28:19.627Z,100.00
2022-07-26T01:30:49.266Z,100.00
2022-07-26T01:33:17.879Z,100.00
2022-07-26T01:35:46.335Z,100.00
2022-07-26T01:38:15.843Z,100.00
2022-07-26T01:40:44.059Z,100.00
2022-07-26T01:43:12.247Z,100.00
2022-07-26T01:45:40.299Z,100.00
2022-07-26T01:48:08.686Z,100.00
2022-07-26T01:50:37.450Z,100.00
2022-07-26T01:53:06.310Z,100.00
2022-07-26T01:55:36.847Z,100.00
2022-07-26T01:58:05.792Z,100.00
2022-07-26T02:00:34.978Z,100.00
2022-07-26T02:03:03.295Z,100.00
2022-07-26T02:05:31.594Z,100.00
2022-07-26T02:07:59.923Z,100.00
2022-07-26T02:10:48.795Z,100.00
2022-07-26T02:13:18.980Z,100.00
2022-07-26T02:15:47.163Z,100.00
2022-07-26T02:18:15.350Z,100.00
2022-07-26T02:20:43.490Z,100.00
2022-07-26T02:23:11.729Z,100.00
2022-07-26T02:25:39.971Z,100.00
2022-07-26T02:28:08.326Z,100.00
2022-07-26T02:30:38.325Z,100.00
2022-07-26T02:33:07.615Z,100.00
2022-07-26T02:35:35.792Z,100.00
2022-07-26T02:38:04.919Z,100.00
2022-07-26T02:40:33.033Z,100.00
2022-07-26T02:43:01.159Z,100.00
2022-07-26T02:45:29.728Z,100.00
2022-07-26T02:47:59.392Z,100.00
2022-07-26T02:50:29.319Z,100.00
2022-07-26T02:52:57.961Z,100.00
2022-07-26T02:55:27.671Z,100.00
2022-07-26T02:57:56.113Z,100.00
2022-07-26T03:00:26.771Z,100.00
2022-07-26T03:02:55.359Z,100.00
2022-07-26T03:05:25.228Z,100.00
2022-07-26T03:07:53.371Z,100.00
2022-07-26T03:10:21.716Z,100.00
2022-07-26T03:12:49.765Z,100.00
2022-07-26T03:15:18.586Z,100.00
2022-07-26T03:17:46.638Z,100.00
2022-07-26T03:20:15.175Z,100.00
2022-07-26T03:22:44.715Z,100.00
2022-07-26T03:25:12.978Z,100.00
2022-07-26T03:27:41.051Z,100.00
2022-07-26T03:30:10.373Z,100.00
2022-07-26T03:32:38.495Z,100.00
2022-07-26T03:35:07.244Z,100.00
2022-07-26T03:37:45.897Z,100.00
2022-07-26T03:40:17.406Z,100.00
2022-07-26T03:42:46.175Z,100.00
2022-07-26T03:45:15.350Z,100.00
2022-07-26T03:47:43.687Z,100.00
2022-07-26T03:50:13.871Z,100.00
2022-07-26T03:52:42.559Z,100.00
2022-07-26T03:55:28.876Z,100.00
2022-07-26T03:57:58.535Z,100.00
2022-07-26T04:00:26.844Z,100.00
2022-07-26T04:02:55.099Z,100.00
2022-07-26T04:05:26.073Z,100.00
2022-07-26T04:07:54.747Z,100.00
2022-07-26T04:10:24.679Z,100.00
2022-07-26T04:12:53.106Z,100.00
2022-07-26T04:15:22.953Z,100.00
2022-07-26T04:17:51.298Z,100.00
2022-07-26T04:20:19.711Z,100.00
2022-07-26T04:22:47.940Z,100.00
2022-07-26T04:25:16.277Z,100.00
2022-07-26T04:27:44.424Z,100.00
2022-07-26T04:30:15.312Z,100.00
2022-07-26T04:32:46.444Z,100.00
2022-07-26T04:35:16.332Z,100.00
2022-07-26T04:37:46.079Z,100.00
2022-07-26T04:40:21.470Z,100.00
2022-07-26T04:42:53.286Z,100.00
2022-07-26T04:45:22.259Z,99.99
2022-07-26T04:47:52.317Z,99.45
2022-07-26T04:50:21.871Z,97.80
2022-07-26T04:52:50.996Z,97.20
2022-07-26T04:55:19.593Z,96.00
2022-07-26T04:57:48.656Z,94.46
2022-07-26T05:00:22.797Z,93.04
2022-07-26T05:02:55.308Z,91.39
2022-07-26T05:05:24.184Z,90.34
2022-07-26T05:07:54.036Z,89.91
2022-07-26T05:10:23.258Z,87.68
2022-07-26T05:12:51.412Z,85.63
2022-07-26T05:15:19.483Z,84.88
2022-07-26T05:17:48.417Z,84.20
2022-07-26T05:20:18.299Z,84.68
2022-07-26T05:22:48.705Z,82.26
2022-07-26T05:25:16.958Z,80.57
2022-07-26T05:27:45.090Z,79.45
2022-07-26T05:30:13.992Z,78.49
2022-07-26T05:32:42.090Z,77.36
2022-07-26T05:35:10.706Z,76.92
2022-07-26T05:37:40.454Z,73.62
2022-07-26T05:40:09.522Z,74.87
2022-07-26T05:42:37.722Z,71.76
2022-07-26T05:45:06.828Z,70.02
2022-07-26T05:47:35.180Z,69.83
2022-07-26T05:50:03.430Z,70.07
2022-07-26T05:52:31.640Z,70.22
2022-07-26T05:55:01.190Z,70.87
2022-07-26T05:57:29.337Z,70.26
2022-07-26T05:59:57.619Z,69.55
2022-07-26T06:02:25.818Z,67.37
2022-07-26T06:04:54.136Z,66.09
2022-07-26T06:07:22.377Z,64.96
2022-07-26T06:09:50.539Z,63.53
2022-07-26T06:12:20.399Z,63.41
2022-07-26T06:14:48.500Z,62.77
2022-07-26T06:17:16.788Z,61.97
2022-07-26T06:19:47.719Z,60.64
2022-07-26T06:22:16.280Z,60.88
2022-07-26T06:24:44.471Z,58.86
2022-07-26T06:27:12.603Z,56.90
2022-07-26T06:29:42.231Z,57.04
2022-07-26T06:32:10.679Z,57.10
2022-07-26T06:34:38.758Z,55.42
2022-07-26T06:37:06.842Z,54.16
2022-07-26T06:39:35.016Z,53.56
2022-07-26T06:42:03.266Z,53.73
2022-07-26T06:44:31.491Z,52.55
2022-07-26T06:47:01.115Z,51.79
2022-07-26T06:49:29.237Z,51.24
2022-07-26T06:51:58.328Z,52.54
2022-07-26T06:54:26.341Z,51.13
2022-07-26T06:56:54.385Z,50.38
2022-07-26T06:59:22.540Z,49.80
2022-07-26T07:01:58.753Z,48.79
2022-07-26T07:04:30.780Z,46.47
2022-07-26T07:07:04.549Z,47.35
2022-07-26T07:09:34.158Z,46.61
2022-07-26T07:12:09.781Z,45.47
2022-07-26T07:14:39.319Z,44.68
2022-07-26T07:17:12.182Z,45.25
2022-07-26T07:19:43.349Z,43.82
2022-07-26T07:22:12.860Z,43.91
2022-07-26T07:24:41.278Z,42.94
2022-07-26T07:27:10.499Z,42.32
2022-07-26T07:29:41.334Z,41.17
2022-07-26T07:32:18.265Z,42.02
2022-07-26T07:34:49.935Z,40.46
2022-07-26T07:37:20.175Z,39.38
2022-07-26T07:39:50.575Z,38.67
2022-07-26T07:42:19.785Z,39.03
2022-07-26T07:44:48.223Z,40.19
2022-07-26T07:47:16.387Z,39.94
2022-07-26T07:49:44.877Z,38.91
2022-07-26T07:52:14.498Z,39.18
2022-07-26T07:54:43.407Z,39.39
2022-07-26T07:57:11.950Z,39.38
2022-07-26T07:59:42.774Z,38.14
2022-07-26T08:02:12.850Z,37.97
2022-07-26T08:04:41.090Z,37.84
2022-07-26T08:07:09.294Z,38.47
2022-07-26T08:09:43.021Z,37.55
2022-07-26T08:12:12.372Z,38.66
2022-07-26T08:14:41.439Z,37.57
2022-07-26T08:17:09.824Z,36.67
2022-07-26T08:19:41.678Z,36.70
2022-07-26T08:22:10.852Z,36.08
2022-07-26T08:24:40.681Z,36.81
2022-07-26T08:27:09.085Z,37.11
2022-07-26T08:29:37.269Z,36.13
2022-07-26T08:32:06.412Z,35.37
2022-07-26T08:34:34.916Z,36.26
2022-07-26T08:37:18.699Z,35.11
2022-07-26T08:39:49.554Z,34.64
2022-07-26T08:42:22.527Z,35.06
2022-07-26T08:44:52.376Z,34.32
2022-07-26T08:47:39.975Z,33.70
2022-07-26T08:50:11.123Z,34.92
2022-07-26T08:52:42.042Z,33.90
2022-07-26T08:55:13.100Z,33.61
2022-07-26T08:57:41.224Z,31.24
2022-07-26T09:00:15.946Z,30.35
2022-07-26T09:02:44.219Z,30.86
2022-07-26T09:05:12.791Z,32.04
2022-07-26T09:07:41.486Z,31.41
2022-07-26T09:10:13.197Z,32.00
2022-07-26T09:12:42.112Z,31.68
2022-07-26T09:15:20.543Z,29.94
2022-07-26T09:17:52.184Z,31.29
2022-07-26T09:20:24.251Z,30.39
2022-07-26T09:23:05.605Z,30.57
2022-07-26T09:25:36.629Z,30.83
2022-07-26T09:28:06.170Z,31.23
2022-07-26T09:30:34.396Z,30.49
2022-07-26T09:33:05.256Z,30.92
2022-07-26T09:35:52.083Z,30.49
2022-07-26T09:38:20.918Z,28.89
2022-07-26T09:40:55.454Z,28.17
2022-07-26T09:43:24.500Z,28.43
2022-07-26T09:46:05.062Z,29.40
2022-07-26T09:48:59.506Z,29.61
2022-07-26T09:51:37.534Z,27.92
2022-07-26T09:54:06.922Z,27.53
2022-07-26T09:56:54.203Z,28.26
2022-07-26T09:59:25.623Z,27.79
2022-07-26T10:01:55.387Z,27.81
2022-07-26T10:04:23.608Z,27.00
2022-07-26T10:06:52.163Z,26.65
2022-07-26T10:09:22.975Z,27.54
2022-07-26T10:11:56.434Z,27.15
2022-07-26T10:14:43.016Z,25.90
2022-07-26T10:17:49.371Z,26.88
2022-07-26T10:20:43.222Z,27.15
2022-07-26T10:23:45.670Z,27.69
2022-07-26T10:26:38.397Z,27.44
2022-07-26T10:29:29.972Z,27.55
2022-07-26T10:32:20.700Z,27.64
2022-07-26T10:34:49.043Z,27.64
2022-07-26T10:37:28.227Z,25.31
2022-07-26T10:40:18.558Z,24.75
2022-07-26T10:42:47.517Z,25.25
2022-07-26T10:45:22.913Z,26.69
2022-07-26T10:48:25.037Z,26.40
2022-07-26T10:50:55.269Z,25.67
2022-07-26T10:53:27.318Z,26.00
2022-07-26T10:55:57.404Z,25.97
2022-07-26T10:58:27.033Z,25.07
2022-07-26T11:00:58.250Z,25.07
2022-07-26T11:03:26.428Z,23.17
2022-07-26T11:05:54.635Z,25.34
2022-07-26T11:08:31.561Z,24.39
2022-07-26T11:10:59.575Z,21.61
2022-07-26T11:13:29.050Z,21.58
2022-07-26T11:16:05.600Z,21.75
2022-07-26T11:18:36.330Z,21.46
2022-07-26T11:21:12.117Z,22.25
2022-07-26T11:23:41.425Z,22.31
2022-07-26T11:26:15.192Z,22.92
2022-07-26T11:28:48.278Z,21.62
2022-07-26T11:31:20.183Z,21.08
2022-07-26T11:33:51.032Z,21.61
2022-07-26T11:36:20.708Z,20.94
2022-07-26T11:38:52.181Z,21.05
2022-07-26T11:41:32.668Z,19.70
2022-07-26T11:44:04.046Z,19.24
2022-07-26T11:46:39.623Z,23.36
2022-07-26T11:49:19.634Z,19.57
2022-07-26T11:51:52.904Z,23.34
2022-07-26T11:54:21.336Z,21.42
2022-07-26T11:56:57.506Z,23.24
2022-07-26T11:59:27.787Z,19.99
2022-07-26T12:01:58.286Z,19.89
2022-07-26T12:04:28.817Z,23.13
2022-07-26T12:06:58.602Z,23.18
2022-07-26T12:09:34.936Z,23.60
2022-07-26T12:12:04.457Z,21.90
2022-07-26T12:14:34.683Z,20.15
2022-07-26T12:17:14.264Z,22.63
2022-07-26T12:19:42.559Z,23.36
2022-07-26T12:22:13.136Z,23.13
2022-07-26T12:24:47.400Z,21.83
2022-07-26T12:27:19.682Z,21.76
2022-07-26T12:29:50.052Z,21.73
2022-07-26T12:32:21.291Z,20.93
2022-07-26T12:35:01.909Z,19.56
2022-07-26T12:37:39.383Z,21.89
2022-07-26T12:40:11.409Z,17.91
2022-07-26T12:42:43.096Z,17.88
2022-07-26T12:45:12.665Z,19.50
2022-07-26T12:47:48.910Z,21.50
2022-07-26T12:50:19.636Z,18.84
2022-07-26T12:52:48.139Z,20.28
2022-07-26T12:55:19.492Z,18.06
2022-07-26T12:57:48.491Z,14.89
2022-07-26T13:00:19.057Z,19.35
2022-07-26T13:02:49.039Z,14.73
2022-07-26T13:05:17.305Z,18.43
2022-07-26T13:07:45.713Z,18.05
2022-07-26T13:10:32.443Z,14.94
2022-07-26T13:13:01.587Z,14.11
2022-07-26T13:15:36.001Z,14.66
2022-07-26T13:18:08.485Z,10.24
2022-07-26T13:20:38.653Z,9.58
2022-07-26T13:23:11.145Z,9.90
2022-07-26T13:25:40.679Z,7.98
2022-07-26T13:28:09.703Z,9.27
2022-07-26T13:30:41.135Z,8.26
2022-07-26T13:33:11.280Z,7.21
2022-07-26T13:35:41.382Z,5.94
2022-07-26T13:38:09.955Z,4.95
2022-07-26T13:40:38.479Z,5.78
2022-07-26T13:43:06.679Z,6.80
2022-07-26T13:45:34.893Z,5.78
2022-07-26T13:48:03.023Z,4.72
2022-07-26T13:50:32.638Z,5.62
2022-07-26T13:53:00.913Z,6.31
2022-07-26T13:55:29.006Z,6.62
2022-07-26T13:57:58.074Z,6.05
2022-07-26T14:00:26.585Z,6.09
2022-07-26T14:02:55.293Z,6.10
2022-07-26T14:05:23.585Z,6.51
2022-07-26T14:07:53.211Z,5.70
2022-07-26T14:10:21.718Z,6.55
2022-07-26T14:12:50.048Z,5.12
2022-07-26T14:15:22.672Z,5.79
2022-07-26T14:17:51.674Z,6.43
2022-07-26T14:20:20.286Z,6.48
2022-07-26T14:22:53.243Z,5.88
2022-07-26T14:25:23.639Z,6.67
2022-07-26T14:27:52.560Z,5.42
2022-07-26T14:30:21.252Z,6.83
2022-07-26T14:32:49.740Z,6.18
2022-07-26T14:35:18.518Z,6.24
2022-07-26T14:37:46.786Z,6.91
2022-07-26T14:40:17.077Z,4.95
2022-07-26T14:42:50.641Z,3.39
2022-07-26T14:45:18.786Z,5.46
2022-07-26T14:47:46.934Z,4.50
2022-07-26T14:50:17.187Z,3.81
2022-07-26T14:52:47.894Z,4.67
2022-07-26T14:55:20.378Z,4.51
2022-07-26T14:57:54.080Z,5.49
2022-07-26T15:00:22.644Z,4.29
2022-07-26T15:02:51.268Z,4.20
2022-07-26T15:05:19.629Z,4.19
2022-07-26T15:07:48.164Z,6.78
2022-07-26T15:10:16.698Z,6.63
2022-07-26T15:12:45.207Z,6.57
2022-07-26T15:15:14.780Z,4.69
2022-07-26T15:17:43.337Z,4.28
2022-07-26T15:20:11.566Z,6.24
2022-07-26T15:22:39.763Z,4.14
2022-07-26T15:25:08.969Z,4.99
2022-07-26T15:27:37.103Z,4.38
2022-07-26T15:30:09.099Z,5.68
2022-07-26T15:32:43.302Z,5.11
2022-07-26T15:35:14.219Z,5.29
2022-07-26T15:37:44.806Z,5.10
2022-07-26T15:40:14.113Z,6.34
2022-07-26T15:42:45.697Z,5.24
2022-07-26T15:45:13.827Z,6.03
2022-07-26T15:47:54.943Z,6.42
2022-07-26T15:50:26.509Z,6.50
2022-07-26T15:52:54.831Z,6.62
2022-07-26T15:55:22.993Z,6.45
2022-07-26T15:57:51.126Z,6.57
2022-07-26T16:00:19.816Z,8.19
2022-07-26T16:02:49.527Z,8.73
2022-07-26T16:05:18.017Z,8.25
2022-07-26T16:07:47.939Z,8.46
2022-07-26T16:10:16.466Z,8.92
2022-07-26T16:12:44.689Z,8.99
2022-07-26T16:15:13.825Z,8.67
2022-07-26T16:17:42.238Z,8.67
2022-07-26T16:20:12.285Z,9.07
2022-07-26T16:22:41.981Z,8.63
2022-07-26T16:25:13.695Z,8.78
2022-07-26T16:27:43.259Z,9.81
2022-07-26T16:30:12.841Z,10.54
2022-07-26T16:32:41.394Z,10.64
2022-07-26T16:35:11.932Z,10.69
2022-07-26T16:37:40.141Z,10.42
2022-07-26T16:40:09.917Z,10.34
2022-07-26T16:42:38.140Z,11.10
2022-07-26T16:45:06.990Z,10.64
2022-07-26T16:47:35.112Z,11.04
2022-07-26T16:50:03.494Z,10.91
2022-07-26T16:52:33.207Z,11.10
2022-07-26T16:55:01.594Z,10.80
2022-07-26T16:57:29.765Z,11.88
2022-07-26T16:59:58.059Z,11.76
2022-07-26T17:02:26.244Z,12.40
2022-07-26T17:04:55.942Z,12.15
2022-07-26T17:07:25.927Z,12.98
2022-07-26T17:09:56.500Z,12.74
2022-07-26T17:12:25.427Z,13.67
2022-07-26T17:14:53.717Z,13.46
2022-07-26T17:17:22.011Z,14.37
2022-07-26T17:19:50.176Z,14.29
2022-07-26T17:22:18.505Z,15.29
2022-07-26T17:24:47.150Z,15.92
2022-07-26T17:27:17.253Z,16.39
2022-07-26T17:29:45.330Z,16.56
2022-07-26T17:32:13.711Z,17.17
2022-07-26T17:34:41.960Z,18.06
2022-07-26T17:37:10.557Z,18.38
2022-07-26T17:39:53.361Z,19.53
2022-07-26T17:42:24.125Z,20.54
2022-07-26T17:44:52.523Z,21.60
2022-07-26T17:47:28.872Z,22.15
2022-07-26T17:52:48.343Z,24.55
2022-07-26T17:55:18.613Z,25.18
2022-07-26T17:57:49.766Z,25.87
2022-07-26T18:00:19.572Z,26.56
2022-07-26T18:02:48.471Z,27.61
2022-07-26T18:05:18.454Z,28.37
2022-07-26T18:07:46.858Z,29.45
2022-07-26T18:10:15.495Z,30.15
2022-07-26T18:12:43.714Z,30.18
2022-07-26T18:15:13.523Z,30.29
2022-07-26T18:17:41.815Z,30.99
2022-07-26T18:20:11.148Z,31.90
2022-07-26T18:22:39.261Z,32.37
2022-07-26T18:25:08.414Z,32.61
2022-07-26T18:27:36.659Z,33.73
2022-07-26T18:30:06.557Z,32.76
2022-07-26T18:32:36.083Z,32.87
2022-07-26T18:35:06.043Z,32.37
2022-07-26T18:37:34.219Z,32.58
2022-07-26T18:40:02.318Z,32.61
2022-07-26T18:42:30.561Z,33.07
2022-07-26T18:44:58.721Z,33.13
2022-07-26T18:47:26.811Z,33.37
2022-07-26T18:49:56.354Z,33.44
2022-07-26T18:52:31.597Z,33.73
2022-07-26T18:55:06.863Z,34.12
2022-07-26T18:57:35.462Z,34.38
2022-07-26T19:00:04.498Z,34.60
2022-07-26T19:02:32.673Z,36.00
2022-07-26T19:05:02.236Z,37.14
2022-07-26T19:07:31.748Z,40.33
2022-07-26T19:09:59.840Z,46.90
2022-07-26T19:12:28.502Z,51.21
2022-07-26T19:14:56.778Z,50.85
2022-07-26T19:17:24.905Z,54.54
2022-07-26T19:19:53.368Z,58.26
2022-07-26T19:22:24.025Z,58.50
2022-07-26T19:24:52.640Z,56.15
2022-07-26T19:27:20.794Z,58.75
2022-07-26T19:29:49.523Z,54.95
2022-07-26T19:32:17.672Z,49.75
2022-07-26T19:34:45.769Z,45.98
2022-07-26T19:37:19.801Z,45.35
2022-07-26T19:39:49.742Z,48.95
2022-07-26T19:42:18.486Z,49.82
2022-07-26T19:44:47.315Z,50.81
2022-07-26T19:47:15.667Z,51.90
2022-07-26T19:49:43.768Z,51.74
2022-07-26T19:52:12.166Z,50.09
2022-07-26T19:54:40.690Z,49.04
2022-07-26T19:57:10.284Z,49.12
2022-07-26T19:59:38.326Z,48.19
2022-07-26T20:02:06.852Z,50.36
2022-07-26T20:04:35.003Z,53.01
2022-07-26T20:07:03.227Z,53.70
2022-07-26T20:09:31.608Z,53.56
2022-07-26T20:11:59.941Z,54.02
2022-07-26T20:14:29.508Z,53.03
2022-07-26T20:16:58.333Z,52.20
2022-07-26T20:19:28.216Z,52.34
2022-07-26T20:21:56.454Z,51.67
2022-07-26T20:24:24.515Z,51.50
2022-07-26T20:26:52.579Z,50.90
2022-07-26T20:29:20.722Z,51.40
2022-07-26T20:31:50.121Z,54.15
2022-07-26T20:34:18.304Z,55.76
2022-07-26T20:36:46.351Z,56.60
2022-07-26T20:39:15.081Z,58.17
2022-07-26T20:41:43.469Z,61.68
2022-07-26T20:44:12.417Z,63.37
2022-07-26T20:46:41.909Z,64.97
2022-07-26T20:49:11.853Z,64.88
2022-07-26T20:51:40.242Z,62.44
2022-07-26T20:54:10.261Z,61.30
2022-07-26T20:56:38.851Z,59.53
2022-07-26T20:59:07.147Z,56.53
2022-07-26T21:01:35.411Z,54.57
2022-07-26T21:04:04.147Z,54.06
2022-07-26T21:06:34.346Z,51.51
2022-07-26T21:09:08.981Z,53.12
2022-07-26T21:11:39.011Z,56.82
2022-07-26T21:14:08.352Z,57.86
2022-07-26T21:16:36.742Z,63.42
2022-07-26T21:19:05.594Z,60.84
2022-07-26T21:21:37.047Z,61.04
2022-07-26T21:24:06.003Z,59.34
2022-07-26T21:26:34.485Z,59.70
2022-07-26T21:29:02.823Z,62.27
2022-07-26T21:31:30.961Z,62.48
2022-07-26T21:33:59.179Z,62.96
2022-07-26T21:36:27.406Z,62.94
2022-07-26T21:38:56.859Z,62.18
2022-07-26T21:41:25.035Z,62.21
2022-07-26T21:43:53.074Z,62.41
2022-07-26T21:46:21.172Z,60.03
2022-07-26T21:48:49.334Z,59.49
2022-07-26T21:51:17.531Z,59.06
2022-07-26T21:53:45.657Z,59.72
2022-07-26T21:56:15.317Z,57.71
2022-07-26T21:58:43.561Z,56.88
2022-07-26T22:01:12.735Z,56.28
2022-07-26T22:03:42.233Z,55.94
2022-07-26T22:06:11.499Z,55.76
2022-07-26T22:08:39.654Z,55.46
2022-07-26T22:11:07.925Z,55.20
2022-07-26T22:13:38.367Z,55.63
2022-07-26T22:16:07.681Z,55.28
2022-07-26T22:18:36.009Z,55.29
2022-07-26T22:21:04.415Z,56.47
2022-07-26T22:23:32.606Z,58.65
2022-07-26T22:26:02.027Z,60.42
2022-07-26T22:28:30.946Z,61.32
2022-07-26T22:31:00.810Z,62.91
2022-07-26T22:33:28.877Z,63.37
2022-07-26T22:35:56.992Z,62.46
2022-07-26T22:38:25.300Z,62.00
2022-07-26T22:40:53.630Z,61.79
2022-07-26T22:43:21.712Z,63.75
2022-07-26T22:45:49.845Z,62.88
2022-07-26T22:48:19.495Z,61.07
2022-07-26T22:50:47.679Z,60.57
2022-07-26T22:53:16.407Z,61.19
2022-07-26T22:55:44.439Z,61.00
2022-07-26T22:58:12.517Z,60.93
2022-07-26T23:00:40.837Z,62.06
2022-07-26T23:03:19.404Z,61.61
2022-07-26T23:05:52.248Z,60.12
2022-07-26T23:08:45.741Z,61.82
2022-07-26T23:11:09.176Z,65.40
2022-07-26T23:13:37.365Z,66.14
2022-07-26T23:16:05.965Z,66.21
2022-07-26T23:18:35.620Z,67.31
2022-07-26T23:21:05.517Z,66.70
2022-07-26T23:23:33.714Z,66.21
2022-07-26T23:26:01.848Z,65.63
2022-07-26T23:28:37.685Z,66.98
2022-07-26T23:31:11.095Z,67.73
2022-07-26T23:33:52.091Z,68.63
2022-07-26T23:36:24.035Z,70.79
2022-07-26T23:38:52.133Z,71.13
2022-07-26T23:41:20.262Z,71.39
2022-07-26T23:43:48.663Z,72.15
2022-07-26T23:46:16.985Z,72.61
2022-07-26T23:48:45.293Z,73.01
2022-07-26T23:51:13.698Z,72.57
2022-07-26T23:53:43.386Z,71.13
2022-07-26T23:56:11.578Z,70.15
2022-07-26T23:58:39.828Z,69.74
